createdAt,value
2022-07-29T00:02:16.382Z,67.12
2022-07-29T00:04:42.641Z,67.00
2022-07-29T00:07:08.858Z,67.41
2022-07-29T00:09:43.037Z,66.99
2022-07-29T00:12:21.497Z,67.27
2022-07-29T00:14:56.835Z,67.27
2022-07-29T00:17:24.441Z,67.29
2022-07-29T00:19:50.693Z,67.12
2022-07-29T00:22:16.891Z,67.79
2022-07-29T00:24:43.130Z,67.23
2022-07-29T00:27:09.292Z,67.84
2022-07-29T00:29:35.613Z,67.77
2022-07-29T00:32:03.191Z,67.80
2022-07-29T00:34:47.856Z,68.14
2022-07-29T00:37:14.007Z,68.49
2022-07-29T00:39:40.169Z,68.45
2022-07-29T11:44:00.375Z,36.04
2022-07-29T11:46:49.966Z,36.25
2022-07-29T11:49:32.275Z,36.16
2022-07-29T11:52:02.493Z,35.25
2022-07-29T11:54:52.267Z,35.57
2022-07-29T11:57:22.106Z,36.14
2022-07-29T11:59:48.770Z,35.66
2022-07-29T12:02:37.277Z,35.98
2022-07-29T12:05:01.932Z,36.23
2022-07-29T12:07:38.056Z,35.28
2022-07-29T12:10:06.275Z,35.86
2022-07-29T12:12:32.662Z,35.60
2022-07-29T12:14:58.913Z,35.69
2022-07-29T12:17:34.014Z,34.91
2022-07-29T12:20:05.018Z,34.81
2022-07-29T12:22:38.214Z,35.03
2022-07-29T12:25:32.544Z,34.92
2022-07-29T12:28:01.093Z,33.53
2022-07-29T12:30:42.215Z,33.03
2022-07-29T12:33:13.559Z,33.53
2022-07-29T12:35:40.763Z,32.88
2022-07-29T12:38:07.261Z,32.37
2022-07-29T12:40:33.600Z,31.84
2022-07-29T12:43:10.515Z,31.88
2022-07-29T12:45:41.781Z,31.45
2022-07-29T12:48:10.033Z,31.31
2022-07-29T12:50:38.371Z,30.81
2022-07-29T12:53:14.476Z,31.05
2022-07-29T12:55:55.439Z,30.64
2022-07-29T12:58:35.431Z,30.06
2022-07-29T13:01:17.113Z,29.84
2022-07-29T13:04:01.720Z,30.07
2022-07-29T13:06:32.584Z,29.87
2022-07-29T13:09:11.672Z,29.83
2022-07-29T13:11:44.047Z,29.60
2022-07-29T13:14:15.266Z,29.87
2022-07-29T13:17:10.774Z,28.95
2022-07-29T13:19:42.874Z,29.17
2022-07-29T13:22:11.611Z,28.68
2022-07-29T13:24:47.480Z,28.33
2022-07-29T13:27:15.960Z,27.90
2022-07-29T13:29:42.102Z,28.02
2022-07-29T13:32:08.494Z,28.12
2022-07-29T13:34:34.681Z,26.97
2022-07-29T13:37:00.842Z,27.70
2022-07-29T13:39:27.086Z,27.94
2022-07-29T13:41:53.594Z,27.76
2022-07-29T13:44:19.743Z,28.06
2022-07-29T13:46:45.900Z,28.26
2022-07-29T13:49:12.447Z,28.83
2022-07-29T13:51:39.289Z,28.00
2022-07-29T13:54:05.653Z,27.91
2022-07-29T13:56:31.950Z,27.66
2022-07-29T13:58:58.303Z,26.96
2022-07-29T14:01:25.334Z,26.89
2022-07-29T14:03:51.508Z,26.92
2022-07-29T14:06:17.681Z,27.64
2022-07-29T14:08:44.531Z,27.95
2022-07-29T14:11:10.728Z,27.91
2022-07-29T14:13:36.883Z,28.01
2022-07-29T14:16:03.126Z,28.29
2022-07-29T14:18:29.386Z,28.53
2022-07-29T14:20:55.615Z,29.29
2022-07-29T14:23:21.839Z,29.32
2022-07-29T14:25:48.239Z,29.90
2022-07-29T14:28:15.836Z,30.04
2022-07-29T14:30:42.646Z,29.79
2022-07-29T14:33:09.139Z,29.60
2022-07-29T14:35:35.298Z,29.53
2022-07-29T14:38:01.467Z,29.61
2022-07-29T14:40:27.743Z,29.33
2022-07-29T14:42:53.904Z,29.19
2022-07-29T14:45:20.055Z,28.75
2022-07-29T14:47:46.231Z,28.97
2022-07-29T14:50:12.492Z,28.73
2022-07-29T14:52:38.978Z,28.58
2022-07-29T14:55:05.726Z,27.62
2022-07-29T14:57:42.890Z,28.32
2022-07-29T15:00:10.385Z,27.85
2022-07-29T15:03:00.498Z,27.93
2022-07-29T15:05:22.704Z,27.43
2022-07-29T15:07:48.866Z,26.61
2022-07-29T15:10:15.620Z,26.27
2022-07-29T15:12:41.835Z,26.39
2022-07-29T15:15:09.747Z,26.04
2022-07-29T15:17:35.961Z,26.58
2022-07-29T15:20:02.295Z,26.21
2022-07-29T15:22:28.608Z,25.80
2022-07-29T15:24:54.751Z,25.70
2022-07-29T15:27:20.911Z,26.12
2022-07-29T15:29:47.096Z,26.20
2022-07-29T15:32:13.340Z,25.82
2022-07-29T15:34:39.562Z,25.36
2022-07-29T15:37:05.934Z,24.18
2022-07-29T15:39:32.204Z,23.85
2022-07-29T15:42:01.134Z,22.60
2022-07-29T15:44:27.871Z,22.46
2022-07-29T15:47:09.160Z,22.35
2022-07-29T15:49:47.526Z,23.38
2022-07-29T15:52:25.991Z,22.96
2022-07-29T15:54:53.112Z,22.96
2022-07-29T15:57:19.385Z,22.90
2022-07-29T15:59:45.530Z,22.57
2022-07-29T16:02:11.815Z,22.97
2022-07-29T16:04:38.056Z,23.78
2022-07-29T16:07:04.632Z,24.18
2022-07-29T16:09:30.955Z,24.04
2022-07-29T16:11:57.131Z,24.17
2022-07-29T16:14:23.536Z,23.70
2022-07-29T16:16:51.358Z,24.42
2022-07-29T16:19:17.588Z,24.57
2022-07-29T16:21:43.835Z,24.46
2022-07-29T16:24:10.011Z,23.97
2022-07-29T16:26:36.580Z,23.99
2022-07-29T16:29:04.070Z,23.71
2022-07-29T16:31:30.260Z,23.96
2022-07-29T16:33:56.636Z,24.52
2022-07-29T16:36:23.044Z,24.44
2022-07-29T16:38:49.739Z,24.22
2022-07-29T16:41:16.006Z,23.81
2022-07-29T16:43:42.162Z,24.17
2022-07-29T16:46:09.537Z,23.64
2022-07-29T16:48:44.961Z,23.84
2022-07-29T16:51:11.806Z,23.70
2022-07-29T16:53:40.745Z,23.48
2022-07-29T16:56:06.894Z,23.63
2022-07-29T16:58:39.215Z,23.41
2022-07-29T17:01:07.622Z,23.42
2022-07-29T17:03:33.822Z,23.86
2022-07-29T17:05:59.975Z,23.86
2022-07-29T17:08:26.161Z,23.69
2022-07-29T17:10:52.325Z,24.08
2022-07-29T17:13:18.489Z,24.61
2022-07-29T17:15:44.643Z,25.00
2022-07-29T17:18:12.453Z,24.87
2022-07-29T17:20:42.058Z,25.18
2022-07-29T17:23:08.315Z,26.01
2022-07-29T17:25:34.520Z,25.90
2022-07-29T17:28:01.252Z,26.58
2022-07-29T17:30:27.579Z,27.29
2022-07-29T17:32:53.937Z,27.59
2022-07-29T17:35:38.827Z,27.80
2022-07-29T17:38:04.992Z,27.64
2022-07-29T17:40:31.150Z,27.63
2022-07-29T17:42:57.444Z,27.92
2022-07-29T17:45:23.597Z,28.11
2022-07-29T17:47:49.795Z,28.50
2022-07-29T17:50:15.936Z,28.94
2022-07-29T17:52:42.115Z,29.17
2022-07-29T17:55:10.358Z,29.23
2022-07-29T17:57:36.910Z,29.62
2022-07-29T18:00:04.494Z,29.72
2022-07-29T18:02:34.828Z,30.54
2022-07-29T18:05:01.068Z,30.45
2022-07-29T18:07:27.249Z,31.03
2022-07-29T18:09:56.359Z,31.41
2022-07-29T18:12:26.292Z,31.58
2022-07-29T18:14:53.299Z,31.85
2022-07-29T18:17:19.489Z,31.99
2022-07-29T18:19:45.701Z,32.69
2022-07-29T18:22:13.329Z,33.02
2022-07-29T18:24:39.487Z,32.89
2022-07-29T18:27:05.668Z,33.51
2022-07-29T18:29:31.852Z,33.48
2022-07-29T18:31:59.932Z,33.43
2022-07-29T18:34:26.101Z,33.76
2022-07-29T18:36:52.266Z,34.60
2022-07-29T18:39:20.520Z,34.69
2022-07-29T18:41:50.731Z,35.23
2022-07-29T18:44:18.208Z,35.44
2022-07-29T18:46:47.239Z,35.91
2022-07-29T18:49:14.465Z,36.03
2022-07-29T18:51:40.712Z,36.41
2022-07-29T18:54:06.917Z,36.98
2022-07-29T18:56:33.069Z,37.30
2022-07-29T18:58:59.248Z,37.20
2022-07-29T19:01:25.626Z,37.70
2022-07-29T19:03:58.136Z,38.08
2022-07-29T19:06:25.945Z,38.17
2022-07-29T19:08:52.580Z,38.64
2022-07-29T19:11:18.743Z,39.00
2022-07-29T19:13:44.913Z,39.28
2022-07-29T19:16:13.465Z,39.20
2022-07-29T19:18:39.932Z,39.59
2022-07-29T19:21:06.119Z,39.40
2022-07-29T19:23:32.343Z,39.66
2022-07-29T19:26:20.500Z,40.48
2022-07-29T19:28:49.071Z,40.55
2022-07-29T19:31:15.516Z,40.63
2022-07-29T19:33:42.629Z,40.91
2022-07-29T19:36:08.897Z,40.67
2022-07-29T19:38:35.070Z,40.84
2022-07-29T19:41:01.224Z,41.07
2022-07-29T19:43:51.442Z,41.14
2022-07-29T19:46:13.542Z,40.76
2022-07-29T19:48:39.892Z,41.42
2022-07-29T19:51:06.079Z,41.70
2022-07-29T19:53:32.996Z,41.45
2022-07-29T19:55:59.139Z,41.41
2022-07-29T19:58:26.949Z,41.47
2022-07-29T20:00:53.365Z,41.39
2022-07-29T20:03:19.732Z,41.94
2022-07-29T20:05:48.027Z,42.15
2022-07-29T20:08:14.595Z,42.16
2022-07-29T20:10:40.747Z,42.63
2022-07-29T20:13:06.912Z,42.16
2022-07-29T20:15:33.132Z,42.81
2022-07-29T20:17:59.315Z,42.36
2022-07-29T20:20:25.862Z,42.74
2022-07-29T20:22:53.092Z,42.35
2022-07-29T20:25:19.275Z,42.73
2022-07-29T20:27:45.572Z,42.89
2022-07-29T20:30:14.230Z,43.57
2022-07-29T20:32:41.867Z,43.67
2022-07-29T20:35:10.008Z,43.43
2022-07-29T20:37:52.142Z,42.96
2022-07-29T20:40:22.438Z,43.87
2022-07-29T20:42:48.595Z,43.37
2022-07-29T20:45:14.756Z,43.58
2022-07-29T20:47:40.974Z,43.31
2022-07-29T20:50:07.631Z,43.84
2022-07-29T20:52:33.831Z,44.21
2022-07-29T20:55:00.031Z,43.90
2022-07-29T20:57:38.953Z,43.78
2022-07-29T21:00:06.891Z,44.02
2022-07-29T21:02:33.483Z,44.40
2022-07-29T21:05:00.070Z,44.77
2022-07-29T21:07:26.249Z,44.93
2022-07-29T21:09:52.415Z,44.68
2022-07-29T21:12:18.859Z,44.79
2022-07-29T21:14:48.161Z,44.86
2022-07-29T21:17:15.823Z,44.65
2022-07-29T21:19:42.587Z,45.38
2022-07-29T21:22:09.083Z,45.35
2022-07-29T21:24:35.303Z,45.42
2022-07-29T21:27:21.519Z,44.94
2022-07-29T21:29:48.127Z,45.29
2022-07-29T21:32:14.348Z,45.17
2022-07-29T21:34:53.845Z,45.81
2022-07-29T21:37:20.072Z,45.88
2022-07-29T21:39:46.231Z,45.67
2022-07-29T21:42:12.566Z,46.28
2022-07-29T21:44:41.333Z,46.11
2022-07-29T21:47:09.569Z,46.52
2022-07-29T21:49:35.788Z,46.10
2022-07-29T21:52:04.103Z,46.40
2022-07-29T21:54:30.283Z,46.49
2022-07-29T21:56:56.514Z,46.66
2022-07-29T21:59:24.043Z,46.92
2022-07-29T22:01:50.340Z,46.70
2022-07-29T22:04:16.614Z,46.94
2022-07-29T22:06:42.824Z,47.32
2022-07-29T22:09:08.974Z,47.06
2022-07-29T22:11:36.838Z,47.18
2022-07-29T22:14:04.357Z,47.03
2022-07-29T22:16:30.559Z,47.56
2022-07-29T22:18:56.752Z,47.50
2022-07-29T22:21:22.896Z,48.31
2022-07-29T22:23:49.077Z,48.00
2022-07-29T22:26:15.227Z,48.58
2022-07-29T22:28:41.560Z,48.46
2022-07-29T22:31:07.959Z,48.48
2022-07-29T22:33:34.170Z,48.33
2022-07-29T22:36:00.310Z,48.49
2022-07-29T22:38:26.479Z,49.38
2022-07-29T22:40:52.620Z,49.36
2022-07-29T22:43:19.013Z,49.60
2022-07-29T22:45:45.223Z,49.44
2022-07-29T22:48:11.695Z,50.03
2022-07-29T22:50:38.506Z,50.17
2022-07-29T22:53:04.667Z,50.12
2022-07-29T22:55:30.842Z,49.58
2022-07-29T22:57:57.012Z,49.93
2022-07-29T23:00:23.191Z,50.13
2022-07-29T23:02:49.391Z,50.94
2022-07-29T23:05:16.055Z,50.97
2022-07-29T23:07:42.297Z,50.92
2022-07-29T23:10:09.029Z,51.36
2022-07-29T23:12:35.225Z,51.48
2022-07-29T23:15:01.374Z,51.17
2022-07-29T23:17:27.557Z,51.21
2022-07-29T23:19:53.726Z,51.53
2022-07-29T23:22:19.882Z,52.08
2022-07-29T23:24:46.088Z,52.00
2022-07-29T23:27:12.263Z,51.68
2022-07-29T23:29:38.411Z,51.67
2022-07-29T23:32:04.934Z,52.03
2022-07-29T23:34:31.074Z,52.19
2022-07-29T23:36:57.500Z,51.77
2022-07-29T23:39:23.874Z,52.06
2022-07-29T23:41:50.105Z,51.89
2022-07-29T23:44:20.064Z,51.98
2022-07-29T23:46:46.327Z,52.22
2022-07-29T23:49:13.695Z,52.32
2022-07-29T23:51:39.912Z,52.41
2022-07-29T23:54:06.106Z,52.53
2022-07-29T23:56:32.251Z,52.77
2022-07-29T23:58:58.403Z,53.10
